sensor_id;sensor_type;location;lat;lon;timestamp;P1;durP1;ratioP1;P2;durP2;ratioP2
39740;SDS011;25426;53.478;10.190;2023-03-07T00:01:32;28.30;;;19.77;;
39740;SDS011;25426;53.478;10.190;2023-03-07T00:04:03;28.37;;;18.23;;
39740;SDS011;25426;53.478;10.190;2023-03-07T00:06:34;28.33;;;18.87;;
39740;SDS011;25426;53.478;10.190;2023-03-07T00:09:05;27.03;;;19.40;;
39740;SDS011;25426;53.478;10.190;2023-03-07T00:11:36;32.33;;;20.30;;
39740;SDS011;25426;53.478;10.190;2023-03-07T00:14:07;31.47;;;20.07;;
39740;SDS011;25426;53.478;10.190;2023-03-07T00:16:38;32.83;;;20.63;;
39740;SDS011;25426;53.478;10.190;2023-03-07T00:19:09;33.67;;;22.07;;
39740;SDS011;25426;53.478;10.190;2023-03-07T00:21:40;31.63;;;21.70;;
39740;SDS011;25426;53.478;10.190;2023-03-07T00:24:11;37.83;;;23.57;;
39740;SDS011;25426;53.478;10.190;2023-03-07T00:26:42;33.77;;;22.27;;
39740;SDS011;25426;53.478;10.190;2023-03-07T00:29:13;37.57;;;23.57;;
39740;SDS011;25426;53.478;10.190;2023-03-07T00:31:44;39.50;;;24.07;;
39740;SDS011;25426;53.478;10.190;2023-03-07T00:34:15;37.60;;;23.67;;
39740;SDS011;25426;53.478;10.190;2023-03-07T00:36:46;38.70;;;24.93;;
39740;SDS011;25426;53.478;10.190;2023-03-07T00:39:17;37.90;;;25.70;;
39740;SDS011;25426;53.478;10.190;2023-03-07T00:41:48;35.23;;;23.73;;
39740;SDS011;25426;53.478;10.190;2023-03-07T00:44:19;39.13;;;26.00;;
39740;SDS011;25426;53.478;10.190;2023-03-07T00:46:50;39.97;;;25.53;;
39740;SDS011;25426;53.478;10.190;2023-03-07T00:49:21;38.13;;;25.03;;
39740;SDS011;25426;53.478;10.190;2023-03-07T00:51:52;41.43;;;27.47;;
39740;SDS011;25426;53.478;10.190;2023-03-07T00:54:23;44.63;;;28.87;;
39740;SDS011;25426;53.478;10.190;2023-03-07T00:56:54;44.17;;;28.40;;
39740;SDS011;25426;53.478;10.190;2023-03-07T00:59:25;40.33;;;26.67;;
39740;SDS011;25426;53.478;10.190;2023-03-07T01:01:57;42.20;;;27.57;;
39740;SDS011;25426;53.478;10.190;2023-03-07T01:04:28;43.37;;;27.80;;
39740;SDS011;25426;53.478;10.190;2023-03-07T01:06:59;44.73;;;27.53;;
39740;SDS011;25426;53.478;10.190;2023-03-07T01:09:30;44.13;;;29.30;;
39740;SDS011;25426;53.478;10.190;2023-03-07T01:12:01;41.10;;;27.83;;
39740;SDS011;25426;53.478;10.190;2023-03-07T01:14:36;43.03;;;28.43;;
39740;SDS011;25426;53.478;10.190;2023-03-07T01:17:07;46.50;;;27.73;;
39740;SDS011;25426;53.478;10.190;2023-03-07T01:19:37;41.77;;;27.53;;
39740;SDS011;25426;53.478;10.190;2023-03-07T01:22:08;44.17;;;29.47;;
39740;SDS011;25426;53.478;10.190;2023-03-07T01:24:39;47.10;;;28.00;;
39740;SDS011;25426;53.478;10.190;2023-03-07T01:27:10;47.10;;;28.73;;
39740;SDS011;25426;53.478;10.190;2023-03-07T01:29:41;45.30;;;28.97;;
39740;SDS011;25426;53.478;10.190;2023-03-07T01:32:12;46.43;;;29.73;;
39740;SDS011;25426;53.478;10.190;2023-03-07T01:34:43;44.80;;;28.30;;
39740;SDS011;25426;53.478;10.190;2023-03-07T01:37:15;43.50;;;29.60;;
39740;SDS011;25426;53.478;10.190;2023-03-07T01:39:52;43.57;;;28.70;;
39740;SDS011;25426;53.478;10.190;2023-03-07T01:42:24;42.33;;;27.50;;
39740;SDS011;25426;53.478;10.190;2023-03-07T01:45:05;46.47;;;30.13;;
39740;SDS011;25426;53.478;10.190;2023-03-07T01:48:03;44.67;;;28.50;;
39740;SDS011;25426;53.478;10.190;2023-03-07T01:50:35;49.00;;;30.43;;
39740;SDS011;25426;53.478;10.190;2023-03-07T01:53:06;42.17;;;28.43;;
39740;SDS011;25426;53.478;10.190;2023-03-07T01:55:37;42.40;;;29.37;;
39740;SDS011;25426;53.478;10.190;2023-03-07T01:58:14;44.77;;;28.87;;
39740;SDS011;25426;53.478;10.190;2023-03-07T02:00:46;43.67;;;28.97;;
39740;SDS011;25426;53.478;10.190;2023-03-07T02:05:52;40.23;;;27.10;;
39740;SDS011;25426;53.478;10.190;2023-03-07T02:08:29;46.33;;;28.70;;
39740;SDS011;25426;53.478;10.190;2023-03-07T02:11:00;41.30;;;28.10;;
39740;SDS011;25426;53.478;10.190;2023-03-07T02:13:31;41.77;;;28.27;;
39740;SDS011;25426;53.478;10.190;2023-03-07T02:16:02;43.10;;;28.40;;
39740;SDS011;25426;53.478;10.190;2023-03-07T02:18:36;42.33;;;27.60;;
39740;SDS011;25426;53.478;10.190;2023-03-07T02:21:33;38.47;;;27.07;;
39740;SDS011;25426;53.478;10.190;2023-03-07T02:24:23;42.93;;;26.57;;
39740;SDS011;25426;53.478;10.190;2023-03-07T02:27:01;44.83;;;28.07;;
39740;SDS011;25426;53.478;10.190;2023-03-07T02:29:33;38.73;;;26.20;;
39740;SDS011;25426;53.478;10.190;2023-03-07T02:32:04;40.37;;;26.37;;
39740;SDS011;25426;53.478;10.190;2023-03-07T02:34:35;41.93;;;27.27;;
39740;SDS011;25426;53.478;10.190;2023-03-07T02:37:26;40.83;;;26.17;;
39740;SDS011;25426;53.478;10.190;2023-03-07T02:40:05;41.93;;;27.03;;
39740;SDS011;25426;53.478;10.190;2023-03-07T02:42:39;41.40;;;27.17;;
39740;SDS011;25426;53.478;10.190;2023-03-07T02:45:17;39.07;;;24.80;;
39740;SDS011;25426;53.478;10.190;2023-03-07T02:47:48;39.77;;;26.47;;
39740;SDS011;25426;53.478;10.190;2023-03-07T02:50:21;39.30;;;26.10;;
39740;SDS011;25426;53.478;10.190;2023-03-07T02:52:55;37.47;;;25.87;;
39740;SDS011;25426;53.478;10.190;2023-03-07T02:55:26;36.83;;;25.30;;
39740;SDS011;25426;53.478;10.190;2023-03-07T02:58:04;36.10;;;23.60;;
39740;SDS011;25426;53.478;10.190;2023-03-07T03:00:35;39.17;;;25.37;;
39740;SDS011;25426;53.478;10.190;2023-03-07T03:03:07;42.37;;;25.47;;
39740;SDS011;25426;53.478;10.190;2023-03-07T03:05:38;43.87;;;28.50;;
39740;SDS011;25426;53.478;10.190;2023-03-07T03:08:09;40.93;;;27.27;;
39740;SDS011;25426;53.478;10.190;2023-03-07T03:10:41;45.80;;;27.30;;
39740;SDS011;25426;53.478;10.190;2023-03-07T03:13:13;38.80;;;26.20;;
39740;SDS011;25426;53.478;10.190;2023-03-07T03:15:46;46.83;;;29.43;;
39740;SDS011;25426;53.478;10.190;2023-03-07T03:18:17;43.97;;;26.57;;
39740;SDS011;25426;53.478;10.190;2023-03-07T03:20:48;42.00;;;27.33;;
39740;SDS011;25426;53.478;10.190;2023-03-07T03:23:19;47.07;;;28.17;;
39740;SDS011;25426;53.478;10.190;2023-03-07T03:26:01;45.20;;;30.30;;
39740;SDS011;25426;53.478;10.190;2023-03-07T03:28:39;44.80;;;28.90;;
39740;SDS011;25426;53.478;10.190;2023-03-07T03:31:11;43.27;;;28.40;;
39740;SDS011;25426;53.478;10.190;2023-03-07T03:33:45;43.20;;;27.23;;
39740;SDS011;25426;53.478;10.190;2023-03-07T03:36:18;44.27;;;28.53;;
39740;SDS011;25426;53.478;10.190;2023-03-07T03:38:56;43.23;;;27.30;;
39740;SDS011;25426;53.478;10.190;2023-03-07T03:41:29;43.57;;;27.37;;
39740;SDS011;25426;53.478;10.190;2023-03-07T03:44:01;39.37;;;25.47;;
39740;SDS011;25426;53.478;10.190;2023-03-07T03:46:34;38.03;;;25.20;;
39740;SDS011;25426;53.478;10.190;2023-03-07T03:49:06;41.40;;;26.37;;
39740;SDS011;25426;53.478;10.190;2023-03-07T03:51:38;41.03;;;25.63;;
39740;SDS011;25426;53.478;10.190;2023-03-07T03:54:09;43.67;;;25.60;;
39740;SDS011;25426;53.478;10.190;2023-03-07T03:56:40;36.17;;;23.60;;
39740;SDS011;25426;53.478;10.190;2023-03-07T03:59:11;37.00;;;23.57;;
39740;SDS011;25426;53.478;10.190;2023-03-07T04:01:42;35.13;;;22.20;;
39740;SDS011;25426;53.478;10.190;2023-03-07T04:04:14;34.60;;;22.90;;
39740;SDS011;25426;53.478;10.190;2023-03-07T04:06:46;32.20;;;21.10;;
39740;SDS011;25426;53.478;10.190;2023-03-07T04:09:17;34.60;;;21.97;;
39740;SDS011;25426;53.478;10.190;2023-03-07T04:11:50;29.07;;;19.70;;
39740;SDS011;25426;53.478;10.190;2023-03-07T04:14:22;31.13;;;20.00;;
39740;SDS011;25426;53.478;10.190;2023-03-07T04:16:53;32.33;;;19.60;;
39740;SDS011;25426;53.478;10.190;2023-03-07T04:19:24;29.50;;;19.80;;
39740;SDS011;25426;53.478;10.190;2023-03-07T04:21:55;31.40;;;19.70;;
39740;SDS011;25426;53.478;10.190;2023-03-07T04:24:26;33.80;;;20.07;;
39740;SDS011;25426;53.478;10.190;2023-03-07T04:26:57;29.17;;;19.20;;
39740;SDS011;25426;53.478;10.190;2023-03-07T04:29:28;30.83;;;18.57;;
39740;SDS011;25426;53.478;10.190;2023-03-07T04:32:06;29.23;;;18.87;;
39740;SDS011;25426;53.478;10.190;2023-03-07T04:34:37;30.87;;;19.07;;
39740;SDS011;25426;53.478;10.190;2023-03-07T04:37:08;30.47;;;18.67;;
39740;SDS011;25426;53.478;10.190;2023-03-07T04:39:39;31.37;;;18.87;;
39740;SDS011;25426;53.478;10.190;2023-03-07T04:42:12;28.07;;;18.37;;
39740;SDS011;25426;53.478;10.190;2023-03-07T04:44:43;27.73;;;17.37;;
39740;SDS011;25426;53.478;10.190;2023-03-07T04:47:14;27.47;;;18.07;;
39740;SDS011;25426;53.478;10.190;2023-03-07T04:49:46;30.83;;;17.33;;
39740;SDS011;25426;53.478;10.190;2023-03-07T04:52:17;25.27;;;16.20;;
39740;SDS011;25426;53.478;10.190;2023-03-07T04:54:48;21.27;;;14.77;;
39740;SDS011;25426;53.478;10.190;2023-03-07T04:57:19;22.80;;;14.87;;
39740;SDS011;25426;53.478;10.190;2023-03-07T04:59:50;25.83;;;15.13;;
39740;SDS011;25426;53.478;10.190;2023-03-07T05:02:22;22.43;;;14.50;;
39740;SDS011;25426;53.478;10.190;2023-03-07T05:04:52;19.63;;;14.37;;
39740;SDS011;25426;53.478;10.190;2023-03-07T05:07:24;17.57;;;12.07;;
39740;SDS011;25426;53.478;10.190;2023-03-07T05:09:55;19.30;;;12.70;;
39740;SDS011;25426;53.478;10.190;2023-03-07T05:12:26;17.43;;;11.83;;
39740;SDS011;25426;53.478;10.190;2023-03-07T05:14:58;17.77;;;10.23;;
39740;SDS011;25426;53.478;10.190;2023-03-07T05:17:29;15.43;;;8.67;;
39740;SDS011;25426;53.478;10.190;2023-03-07T05:20:00;15.43;;;8.93;;
39740;SDS011;25426;53.478;10.190;2023-03-07T05:22:33;18.70;;;8.73;;
39740;SDS011;25426;53.478;10.190;2023-03-07T05:25:04;10.87;;;7.37;;
39740;SDS011;25426;53.478;10.190;2023-03-07T05:27:36;12.63;;;8.37;;
39740;SDS011;25426;53.478;10.190;2023-03-07T05:30:07;11.43;;;7.97;;
39740;SDS011;25426;53.478;10.190;2023-03-07T05:32:40;11.60;;;6.80;;
39740;SDS011;25426;53.478;10.190;2023-03-07T05:35:13;11.33;;;7.03;;
39740;SDS011;25426;53.478;10.190;2023-03-07T05:37:45;9.50;;;6.10;;
39740;SDS011;25426;53.478;10.190;2023-03-07T05:40:17;11.57;;;6.00;;
39740;SDS011;25426;53.478;10.190;2023-03-07T05:42:50;14.63;;;5.80;;
39740;SDS011;25426;53.478;10.190;2023-03-07T05:45:22;9.33;;;4.33;;
39740;SDS011;25426;53.478;10.190;2023-03-07T05:47:53;11.63;;;5.37;;
39740;SDS011;25426;53.478;10.190;2023-03-07T05:50:24;7.93;;;4.33;;
39740;SDS011;25426;53.478;10.190;2023-03-07T05:52:55;10.10;;;4.80;;
39740;SDS011;25426;53.478;10.190;2023-03-07T05:55:29;7.13;;;3.53;;
39740;SDS011;25426;53.478;10.190;2023-03-07T05:58:01;9.13;;;4.57;;
39740;SDS011;25426;53.478;10.190;2023-03-07T06:00:32;9.47;;;4.67;;
39740;SDS011;25426;53.478;10.190;2023-03-07T06:03:04;13.37;;;4.83;;
39740;SDS011;25426;53.478;10.190;2023-03-07T06:05:36;8.83;;;4.07;;
39740;SDS011;25426;53.478;10.190;2023-03-07T06:08:08;7.03;;;3.27;;
39740;SDS011;25426;53.478;10.190;2023-03-07T06:10:39;9.53;;;3.90;;
39740;SDS011;25426;53.478;10.190;2023-03-07T06:13:15;9.40;;;4.10;;
39740;SDS011;25426;53.478;10.190;2023-03-07T06:15:51;4.97;;;2.73;;
39740;SDS011;25426;53.478;10.190;2023-03-07T06:18:25;6.20;;;3.17;;
39740;SDS011;25426;53.478;10.190;2023-03-07T06:20:57;5.93;;;3.10;;
39740;SDS011;25426;53.478;10.190;2023-03-07T06:23:38;7.83;;;2.80;;
39740;SDS011;25426;53.478;10.190;2023-03-07T06:26:14;6.50;;;2.93;;
39740;SDS011;25426;53.478;10.190;2023-03-07T06:28:48;6.40;;;2.73;;
39740;SDS011;25426;53.478;10.190;2023-03-07T06:31:19;6.50;;;2.90;;
39740;SDS011;25426;53.478;10.190;2023-03-07T06:33:51;4.73;;;2.70;;
39740;SDS011;25426;53.478;10.190;2023-03-07T06:36:23;9.37;;;2.93;;
39740;SDS011;25426;53.478;10.190;2023-03-07T06:39:03;10.30;;;2.80;;
39740;SDS011;25426;53.478;10.190;2023-03-07T06:41:34;5.07;;;2.50;;
39740;SDS011;25426;53.478;10.190;2023-03-07T06:44:07;7.17;;;2.60;;
39740;SDS011;25426;53.478;10.190;2023-03-07T06:46:40;5.13;;;2.43;;
39740;SDS011;25426;53.478;10.190;2023-03-07T06:49:16;11.03;;;2.50;;
39740;SDS011;25426;53.478;10.190;2023-03-07T06:51:50;5.30;;;2.33;;
39740;SDS011;25426;53.478;10.190;2023-03-07T06:54:21;6.40;;;2.33;;
39740;SDS011;25426;53.478;10.190;2023-03-07T06:56:52;10.43;;;3.20;;
39740;SDS011;25426;53.478;10.190;2023-03-07T06:59:25;7.00;;;2.57;;
39740;SDS011;25426;53.478;10.190;2023-03-07T07:01:57;6.87;;;2.13;;
39740;SDS011;25426;53.478;10.190;2023-03-07T07:04:32;4.43;;;2.27;;
39740;SDS011;25426;53.478;10.190;2023-03-07T07:07:03;8.13;;;2.27;;
39740;SDS011;25426;53.478;10.190;2023-03-07T07:09:36;8.20;;;1.93;;
39740;SDS011;25426;53.478;10.190;2023-03-07T07:12:07;12.17;;;2.50;;
39740;SDS011;25426;53.478;10.190;2023-03-07T07:14:39;8.67;;;1.97;;
39740;SDS011;25426;53.478;10.190;2023-03-07T07:17:10;9.80;;;1.83;;
39740;SDS011;25426;53.478;10.190;2023-03-07T07:19:41;8.45;;;1.80;;
39740;SDS011;25426;53.478;10.190;2023-03-07T07:22:14;5.82;;;2.10;;
39740;SDS011;25426;53.478;10.190;2023-03-07T07:24:47;10.57;;;1.93;;
39740;SDS011;25426;53.478;10.190;2023-03-07T07:27:18;11.55;;;2.40;;
39740;SDS011;25426;53.478;10.190;2023-03-07T07:29:50;3.25;;;2.15;;
39740;SDS011;25426;53.478;10.190;2023-03-07T07:32:21;4.50;;;1.50;;
39740;SDS011;25426;53.478;10.190;2023-03-07T07:34:52;7.40;;;2.20;;
39740;SDS011;25426;53.478;10.190;2023-03-07T07:37:25;7.37;;;1.73;;
39740;SDS011;25426;53.478;10.190;2023-03-07T07:39:56;8.80;;;2.10;;
39740;SDS011;25426;53.478;10.190;2023-03-07T07:42:27;6.37;;;1.93;;
39740;SDS011;25426;53.478;10.190;2023-03-07T07:45:16;11.43;;;2.57;;
39740;SDS011;25426;53.478;10.190;2023-03-07T07:47:48;9.73;;;2.50;;
39740;SDS011;25426;53.478;10.190;2023-03-07T07:50:20;4.05;;;1.77;;
39740;SDS011;25426;53.478;10.190;2023-03-07T07:52:52;5.72;;;2.03;;
39740;SDS011;25426;53.478;10.190;2023-03-07T07:55:24;8.98;;;2.08;;
39740;SDS011;25426;53.478;10.190;2023-03-07T07:57:55;8.38;;;2.00;;
39740;SDS011;25426;53.478;10.190;2023-03-07T08:00:26;5.28;;;1.73;;
39740;SDS011;25426;53.478;10.190;2023-03-07T08:02:57;4.88;;;1.90;;
39740;SDS011;25426;53.478;10.190;2023-03-07T08:05:29;9.45;;;2.70;;
39740;SDS011;25426;53.478;10.190;2023-03-07T08:08:00;11.18;;;2.75;;
39740;SDS011;25426;53.478;10.190;2023-03-07T08:10:31;14.60;;;2.90;;
39740;SDS011;25426;53.478;10.190;2023-03-07T08:13:02;7.20;;;2.13;;
39740;SDS011;25426;53.478;10.190;2023-03-07T08:15:33;7.90;;;2.33;;
39740;SDS011;25426;53.478;10.190;2023-03-07T08:18:05;8.90;;;2.08;;
39740;SDS011;25426;53.478;10.190;2023-03-07T08:20:36;5.35;;;2.10;;
39740;SDS011;25426;53.478;10.190;2023-03-07T08:23:07;6.00;;;2.15;;
39740;SDS011;25426;53.478;10.190;2023-03-07T08:25:38;7.47;;;2.00;;
39740;SDS011;25426;53.478;10.190;2023-03-07T08:28:09;6.43;;;2.30;;
39740;SDS011;25426;53.478;10.190;2023-03-07T08:30:41;8.60;;;2.55;;
39740;SDS011;25426;53.478;10.190;2023-03-07T08:33:11;7.43;;;2.13;;
39740;SDS011;25426;53.478;10.190;2023-03-07T08:35:43;7.38;;;2.05;;
39740;SDS011;25426;53.478;10.190;2023-03-07T08:38:14;14.20;;;2.60;;
39740;SDS011;25426;53.478;10.190;2023-03-07T08:40:45;4.40;;;1.83;;
39740;SDS011;25426;53.478;10.190;2023-03-07T08:43:16;6.15;;;2.22;;
39740;SDS011;25426;53.478;10.190;2023-03-07T08:45:49;8.15;;;2.58;;
39740;SDS011;25426;53.478;10.190;2023-03-07T08:48:20;7.45;;;2.30;;
39740;SDS011;25426;53.478;10.190;2023-03-07T08:50:51;8.68;;;2.65;;
39740;SDS011;25426;53.478;10.190;2023-03-07T08:53:23;7.37;;;2.33;;
39740;SDS011;25426;53.478;10.190;2023-03-07T08:55:54;9.93;;;2.63;;
39740;SDS011;25426;53.478;10.190;2023-03-07T08:58:25;10.32;;;2.47;;
39740;SDS011;25426;53.478;10.190;2023-03-07T09:00:56;11.18;;;2.47;;
39740;SDS011;25426;53.478;10.190;2023-03-07T09:03:28;11.48;;;2.03;;
39740;SDS011;25426;53.478;10.190;2023-03-07T09:05:59;9.05;;;2.45;;
39740;SDS011;25426;53.478;10.190;2023-03-07T09:08:31;9.25;;;3.22;;
39740;SDS011;25426;53.478;10.190;2023-03-07T09:11:02;10.60;;;3.15;;
39740;SDS011;25426;53.478;10.190;2023-03-07T09:13:34;9.70;;;2.42;;
39740;SDS011;25426;53.478;10.190;2023-03-07T09:16:05;9.52;;;2.60;;
39740;SDS011;25426;53.478;10.190;2023-03-07T09:18:37;14.38;;;2.88;;
39740;SDS011;25426;53.478;10.190;2023-03-07T09:21:08;3.88;;;2.08;;
39740;SDS011;25426;53.478;10.190;2023-03-07T09:23:41;9.30;;;2.60;;
39740;SDS011;25426;53.478;10.190;2023-03-07T09:26:12;8.13;;;2.78;;
39740;SDS011;25426;53.478;10.190;2023-03-07T09:28:43;8.50;;;2.97;;
39740;SDS011;25426;53.478;10.190;2023-03-07T09:31:14;5.00;;;2.00;;
39740;SDS011;25426;53.478;10.190;2023-03-07T09:33:45;9.68;;;2.20;;
39740;SDS011;25426;53.478;10.190;2023-03-07T09:36:17;7.75;;;2.78;;
39740;SDS011;25426;53.478;10.190;2023-03-07T09:38:48;9.70;;;2.20;;
39740;SDS011;25426;53.478;10.190;2023-03-07T09:44:21;10.93;;;2.33;;
39740;SDS011;25426;53.478;10.190;2023-03-07T09:47:30;13.60;;;2.70;;
39740;SDS011;25426;53.478;10.190;2023-03-07T09:53:36;11.38;;;3.15;;
39740;SDS011;25426;53.478;10.190;2023-03-07T09:59:03;8.25;;;2.25;;
39740;SDS011;25426;53.478;10.190;2023-03-07T10:01:53;9.18;;;2.63;;
39740;SDS011;25426;53.478;10.190;2023-03-07T10:04:38;8.23;;;1.95;;
39740;SDS011;25426;53.478;10.190;2023-03-07T10:08:04;10.77;;;2.25;;
39740;SDS011;25426;53.478;10.190;2023-03-07T10:10:37;7.90;;;2.22;;
39740;SDS011;25426;53.478;10.190;2023-03-07T10:16:48;5.25;;;1.75;;
39740;SDS011;25426;53.478;10.190;2023-03-07T10:19:42;4.55;;;1.92;;
39740;SDS011;25426;53.478;10.190;2023-03-07T10:22:20;10.98;;;2.38;;
39740;SDS011;25426;53.478;10.190;2023-03-07T10:25:31;7.90;;;2.15;;
39740;SDS011;25426;53.478;10.190;2023-03-07T10:28:29;6.55;;;2.10;;
39740;SDS011;25426;53.478;10.190;2023-03-07T10:31:11;9.00;;;1.92;;
39740;SDS011;25426;53.478;10.190;2023-03-07T10:34:15;6.57;;;2.22;;
39740;SDS011;25426;53.478;10.190;2023-03-07T10:37:02;10.50;;;2.38;;
39740;SDS011;25426;53.478;10.190;2023-03-07T10:39:50;7.55;;;2.20;;
39740;SDS011;25426;53.478;10.190;2023-03-07T10:42:24;4.88;;;1.92;;
39740;SDS011;25426;53.478;10.190;2023-03-07T10:45:04;4.90;;;1.70;;
39740;SDS011;25426;53.478;10.190;2023-03-07T10:47:36;6.05;;;2.05;;
39740;SDS011;25426;53.478;10.190;2023-03-07T10:53:04;5.23;;;1.67;;
39740;SDS011;25426;53.478;10.190;2023-03-07T10:58:57;3.90;;;1.77;;
39740;SDS011;25426;53.478;10.190;2023-03-07T11:01:50;4.55;;;1.50;;
39740;SDS011;25426;53.478;10.190;2023-03-07T11:04:27;4.13;;;1.75;;
39740;SDS011;25426;53.478;10.190;2023-03-07T11:06:59;3.45;;;1.40;;
39740;SDS011;25426;53.478;10.190;2023-03-07T11:09:31;5.72;;;1.50;;
39740;SDS011;25426;53.478;10.190;2023-03-07T11:17:25;8.57;;;1.90;;
39740;SDS011;25426;53.478;10.190;2023-03-07T11:20:20;6.07;;;1.90;;
39740;SDS011;25426;53.478;10.190;2023-03-07T11:23:15;5.05;;;2.03;;
39740;SDS011;25426;53.478;10.190;2023-03-07T11:25:55;6.43;;;2.20;;
39740;SDS011;25426;53.478;10.190;2023-03-07T11:29:05;9.27;;;1.70;;
39740;SDS011;25426;53.478;10.190;2023-03-07T11:31:55;12.18;;;2.45;;
39740;SDS011;25426;53.478;10.190;2023-03-07T11:34:33;6.60;;;1.75;;
39740;SDS011;25426;53.478;10.190;2023-03-07T11:40:29;7.63;;;2.17;;
39740;SDS011;25426;53.478;10.190;2023-03-07T11:43:15;5.93;;;2.50;;
39740;SDS011;25426;53.478;10.190;2023-03-07T11:49:07;7.10;;;2.65;;
39740;SDS011;25426;53.478;10.190;2023-03-07T11:52:08;7.10;;;2.22;;
39740;SDS011;25426;53.478;10.190;2023-03-07T11:55:24;9.52;;;2.03;;
39740;SDS011;25426;53.478;10.190;2023-03-07T12:10:50;8.13;;;2.70;;
39740;SDS011;25426;53.478;10.190;2023-03-07T12:13:46;12.68;;;2.40;;
39740;SDS011;25426;53.478;10.190;2023-03-07T12:19:38;8.82;;;2.80;;
39740;SDS011;25426;53.478;10.190;2023-03-07T12:23:00;9.20;;;2.97;;
39740;SDS011;25426;53.478;10.190;2023-03-07T12:25:54;7.85;;;2.63;;
39740;SDS011;25426;53.478;10.190;2023-03-07T12:28:31;6.47;;;2.53;;
39740;SDS011;25426;53.478;10.190;2023-03-07T12:31:24;8.80;;;2.28;;
39740;SDS011;25426;53.478;10.190;2023-03-07T12:36:50;7.82;;;2.47;;
39740;SDS011;25426;53.478;10.190;2023-03-07T12:39:43;8.93;;;2.85;;
39740;SDS011;25426;53.478;10.190;2023-03-07T12:42:33;10.50;;;2.55;;
39740;SDS011;25426;53.478;10.190;2023-03-07T12:45:23;9.75;;;2.47;;
39740;SDS011;25426;53.478;10.190;2023-03-07T12:50:56;5.88;;;1.83;;
39740;SDS011;25426;53.478;10.190;2023-03-07T12:59:55;9.40;;;2.05;;
39740;SDS011;25426;53.478;10.190;2023-03-07T13:02:36;5.32;;;1.50;;
39740;SDS011;25426;53.478;10.190;2023-03-07T13:05:19;7.10;;;1.98;;
39740;SDS011;25426;53.478;10.190;2023-03-07T13:07:50;7.80;;;2.15;;
39740;SDS011;25426;53.478;10.190;2023-03-07T13:10:23;8.73;;;2.30;;
39740;SDS011;25426;53.478;10.190;2023-03-07T13:12:54;6.88;;;1.60;;
39740;SDS011;25426;53.478;10.190;2023-03-07T13:18:30;8.65;;;1.92;;
39740;SDS011;25426;53.478;10.190;2023-03-07T13:21:06;9.80;;;2.08;;
39740;SDS011;25426;53.478;10.190;2023-03-07T13:24:49;3.40;;;1.85;;
39740;SDS011;25426;53.478;10.190;2023-03-07T13:27:13;11.55;;;2.28;;
39740;SDS011;25426;53.478;10.190;2023-03-07T13:37:58;8.27;;;2.10;;
39740;SDS011;25426;53.478;10.190;2023-03-07T13:41:04;6.85;;;1.63;;
39740;SDS011;25426;53.478;10.190;2023-03-07T13:49:34;8.35;;;2.15;;
39740;SDS011;25426;53.478;10.190;2023-03-07T13:52:27;6.03;;;1.95;;
39740;SDS011;25426;53.478;10.190;2023-03-07T13:55:13;4.70;;;2.33;;
39740;SDS011;25426;53.478;10.190;2023-03-07T13:57:51;5.13;;;2.15;;
39740;SDS011;25426;53.478;10.190;2023-03-07T14:00:24;7.50;;;1.98;;
39740;SDS011;25426;53.478;10.190;2023-03-07T14:03:01;5.30;;;1.95;;
39740;SDS011;25426;53.478;10.190;2023-03-07T14:05:32;8.00;;;1.77;;
39740;SDS011;25426;53.478;10.190;2023-03-07T14:08:03;5.47;;;1.95;;
39740;SDS011;25426;53.478;10.190;2023-03-07T14:10:35;6.13;;;1.83;;
39740;SDS011;25426;53.478;10.190;2023-03-07T14:13:10;6.20;;;1.90;;
39740;SDS011;25426;53.478;10.190;2023-03-07T14:19:35;6.70;;;1.80;;
39740;SDS011;25426;53.478;10.190;2023-03-07T14:23:02;8.02;;;2.35;;
39740;SDS011;25426;53.478;10.190;2023-03-07T14:26:27;6.40;;;1.63;;
39740;SDS011;25426;53.478;10.190;2023-03-07T14:31:53;11.70;;;2.45;;
39740;SDS011;25426;53.478;10.190;2023-03-07T14:34:30;8.73;;;2.05;;
39740;SDS011;25426;53.478;10.190;2023-03-07T14:39:48;8.10;;;1.52;;
39740;SDS011;25426;53.478;10.190;2023-03-07T14:42:51;8.80;;;1.70;;
39740;SDS011;25426;53.478;10.190;2023-03-07T14:49:30;13.18;;;2.65;;
39740;SDS011;25426;53.478;10.190;2023-03-07T14:52:43;10.48;;;1.85;;
39740;SDS011;25426;53.478;10.190;2023-03-07T14:55:19;8.02;;;2.00;;
39740;SDS011;25426;53.478;10.190;2023-03-07T14:57:53;7.95;;;2.20;;
39740;SDS011;25426;53.478;10.190;2023-03-07T15:00:27;6.75;;;2.13;;
39740;SDS011;25426;53.478;10.190;2023-03-07T15:03:04;8.55;;;2.05;;
39740;SDS011;25426;53.478;10.190;2023-03-07T15:05:50;6.63;;;1.70;;
39740;SDS011;25426;53.478;10.190;2023-03-07T15:08:32;6.28;;;1.95;;
39740;SDS011;25426;53.478;10.190;2023-03-07T15:11:13;8.18;;;2.53;;
39740;SDS011;25426;53.478;10.190;2023-03-07T15:14:14;3.97;;;1.77;;
39740;SDS011;25426;53.478;10.190;2023-03-07T15:16:51;2.72;;;1.35;;
39740;SDS011;25426;53.478;10.190;2023-03-07T15:22:25;4.55;;;1.13;;
39740;SDS011;25426;53.478;10.190;2023-03-07T15:25:00;2.75;;;1.10;;
39740;SDS011;25426;53.478;10.190;2023-03-07T15:27:31;5.97;;;1.08;;
39740;SDS011;25426;53.478;10.190;2023-03-07T15:30:03;4.97;;;1.48;;
39740;SDS011;25426;53.478;10.190;2023-03-07T15:32:38;2.78;;;1.50;;
39740;SDS011;25426;53.478;10.190;2023-03-07T15:35:14;7.05;;;1.80;;
39740;SDS011;25426;53.478;10.190;2023-03-07T15:37:54;10.13;;;2.33;;
39740;SDS011;25426;53.478;10.190;2023-03-07T15:40:30;7.90;;;2.83;;
39740;SDS011;25426;53.478;10.190;2023-03-07T15:45:36;4.37;;;1.77;;
39740;SDS011;25426;53.478;10.190;2023-03-07T15:50:54;7.50;;;2.45;;
39740;SDS011;25426;53.478;10.190;2023-03-07T15:53:29;7.77;;;1.67;;
39740;SDS011;25426;53.478;10.190;2023-03-07T15:56:15;6.23;;;1.70;;
39740;SDS011;25426;53.478;10.190;2023-03-07T15:59:04;5.17;;;1.90;;
39740;SDS011;25426;53.478;10.190;2023-03-07T16:01:46;4.38;;;1.45;;
39740;SDS011;25426;53.478;10.190;2023-03-07T16:07:17;5.85;;;1.42;;
39740;SDS011;25426;53.478;10.190;2023-03-07T16:09:48;3.72;;;1.60;;
39740;SDS011;25426;53.478;10.190;2023-03-07T16:12:20;3.10;;;1.23;;
39740;SDS011;25426;53.478;10.190;2023-03-07T16:14:52;4.38;;;1.42;;
39740;SDS011;25426;53.478;10.190;2023-03-07T16:17:35;7.30;;;1.43;;
39740;SDS011;25426;53.478;10.190;2023-03-07T16:20:13;1.67;;;1.27;;
39740;SDS011;25426;53.478;10.190;2023-03-07T16:22:47;5.57;;;1.67;;
39740;SDS011;25426;53.478;10.190;2023-03-07T16:25:18;6.63;;;1.77;;
39740;SDS011;25426;53.478;10.190;2023-03-07T16:27:52;5.33;;;1.67;;
39740;SDS011;25426;53.478;10.190;2023-03-07T16:30:27;3.73;;;1.60;;
39740;SDS011;25426;53.478;10.190;2023-03-07T16:32:59;4.97;;;1.37;;
39740;SDS011;25426;53.478;10.190;2023-03-07T16:35:30;2.77;;;1.33;;
39740;SDS011;25426;53.478;10.190;2023-03-07T16:38:01;5.13;;;1.80;;
39740;SDS011;25426;53.478;10.190;2023-03-07T16:40:32;2.87;;;1.50;;
39740;SDS011;25426;53.478;10.190;2023-03-07T16:43:03;4.27;;;1.60;;
39740;SDS011;25426;53.478;10.190;2023-03-07T16:45:34;4.80;;;1.53;;
39740;SDS011;25426;53.478;10.190;2023-03-07T16:48:07;11.73;;;1.63;;
39740;SDS011;25426;53.478;10.190;2023-03-07T16:50:40;4.10;;;1.70;;
39740;SDS011;25426;53.478;10.190;2023-03-07T16:53:11;7.30;;;2.03;;
39740;SDS011;25426;53.478;10.190;2023-03-07T16:55:42;5.53;;;1.90;;
39740;SDS011;25426;53.478;10.190;2023-03-07T16:58:29;4.63;;;2.70;;